Time;durP1;ratioP1;P1;durP2;ratioP2;P2;SDS_P1;SDS_P2;PMS_P1;PMS_P2;Temp;Humidity;BMP_temperature;BMP_pressure;BME280_temperature;BME280_humidity;BME280_pressure;Samples;Min_cycle;Max_cycle;Signal;HPM_P1;HPM_P2
2022/08/28 00:00:50;;;;;;;;;;;;;;;-144.99;90.75;52278.91;4988534;28;20492;-73
2022/08/28 00:03:19;;;;;;;;;;;;;;;-144.99;90.99;52252.44;4986872;28;20391;-74
2022/08/28 00:05:46;;;;;;;;;;;;;;;-144.99;91.07;52248.34;4987521;28;19937;-73
2022/08/28 00:08:14;;;;;;;;;;;;;;;-144.99;91.30;52248.34;4988139;28;19933;-73
2022/08/28 00:10:41;;;;;;;;;;;;;;;-144.99;91.16;52268.72;4988498;28;20036;-72
2022/08/28 00:13:08;;;;;;;;;;;;;;;-144.99;90.84;52238.16;4988097;28;20023;-74
2022/08/28 00:15:36;;;;;;;;;;;;;;;-144.99;91.22;52260.56;4987144;28;20029;-73
2022/08/28 00:18:04;;;;;;;;;;;;;;;-144.99;91.22;52256.50;4987770;28;19934;-74
2022/08/28 00:20:32;;;;;;;;;;;;;;;-144.99;91.09;52244.28;4988530;28;19930;-73
2022/08/28 00:22:59;;;;;;;;;;;;;;;-144.99;91.51;52264.66;4988553;28;19936;-74
2022/08/28 00:25:27;;;;;;;;;;;;;;;-144.99;91.51;52236.13;4987028;28;19972;-73
2022/08/28 00:27:53;;;;;;;;;;;;;;;-144.99;91.70;52232.03;4988542;28;19929;-74
2022/08/28 00:30:21;;;;;;;;;;;;;;;-144.99;91.89;52227.97;4980046;28;19945;-72
2022/08/28 00:32:47;;;;;;;;;;;;;;;-144.99;92.04;52227.97;4974377;28;19940;-72
2022/08/28 00:35:15;;;;;;;;;;;;;;;-144.99;92.33;52234.09;4976479;28;20468;-72
2022/08/28 00:37:42;;;;;;;;;;;;;;;-144.99;92.68;52264.66;4975045;28;19972;-73
2022/08/28 00:40:10;;;;;;;;;;;;;;;-144.99;92.88;52264.66;4983097;28;19932;-72
2022/08/28 00:42:37;;;;;;;;;;;;;;;-144.99;92.79;52252.44;4987556;28;19930;-72
2022/08/28 00:45:04;;;;;;;;;;;;;;;-144.99;92.78;52227.97;4982872;28;19926;-71
2022/08/28 00:47:30;;;;;;;;;;;;;;;-144.99;92.70;52240.19;4975100;28;19969;-71
2022/08/28 00:49:57;;;;;;;;;;;;;;;-144.99;92.80;52256.50;4987840;28;19930;-71
2022/08/28 00:52:23;;;;;;;;;;;;;;;-144.99;93.14;52268.72;4983022;28;20046;-71
2022/08/28 00:54:53;;;;;;;;;;;;;;;-144.99;93.13;52244.28;4984806;28;19965;-71
2022/08/28 00:57:21;;;;;;;;;;;;;;;-144.99;93.17;52260.56;4974446;28;20381;-71
2022/08/28 00:59:47;;;;;;;;;;;;;;;-144.99;93.18;52256.50;4982886;28;19926;-71
2022/08/28 01:02:14;;;;;;;;;;;;;;;-144.99;93.06;52248.34;4987871;28;19926;-71
2022/08/28 01:04:40;;;;;;;;;;;;;;;-144.99;93.34;52232.03;4980719;28;19925;-71
2022/08/28 01:07:08;;;;;;;;;;;;;;;-144.99;93.84;52252.44;4640030;28;10000351;-72
2022/08/28 01:09:36;;;;;;;;;;;;;;;-144.99;93.68;52240.19;4983194;28;20286;-72
2022/08/28 01:12:07;;;;;;;;;;;;;;;-144.99;93.51;52268.72;4987514;28;20673;-73
2022/08/28 01:14:35;;;;;;;;;;;;;;;-144.99;93.89;52270.78;4983048;28;19962;-75
2022/08/28 01:17:02;;;;;;;;;;;;;;;-144.99;93.88;52289.13;5010903;23;19925;-76
2022/08/28 01:19:31;;;;;;;;;;;;;;;-144.99;93.82;52240.19;4998840;28;19926;-75
2022/08/28 01:22:01;;;;;;;;;;;;;;;-144.99;94.10;52293.19;5003934;28;19929;-74
2022/08/28 01:24:30;;;;;;;;;;;;;;;-144.99;93.78;52260.56;5017489;28;19926;-74
2022/08/28 01:26:57;;;;;;;;;;;;;;;-144.99;93.61;52203.50;5017423;28;19936;-73
2022/08/28 01:29:23;;;;;;;;;;;;;;;-144.99;93.82;52272.81;5020364;28;20341;-74
2022/08/28 01:31:50;;;;;;;;;;;;;;;-144.99;93.82;52252.44;5014170;28;19926;-75
2022/08/28 01:34:16;;;;;;;;;;;;;;;-144.99;94.11;52234.09;5014439;28;19932;-75
2022/08/28 01:36:43;;;;;;;;;;;;;;;-144.99;94.15;52256.50;5021398;28;19941;-75
2022/08/28 01:39:11;;;;;;;;;;;;;;;-144.99;94.05;52268.72;5023809;28;19993;-74
2022/08/28 01:41:40;;;;;;;;;;;;;;;-144.99;94.58;52264.66;5022097;28;19930;-74
2022/08/28 01:44:06;;;;;;;;;;;;;;;-144.99;94.83;52232.03;5009703;28;19925;-74
2022/08/28 01:46:33;;;;;;;;;;;;;;;-144.99;95.00;52227.97;5007513;28;20024;-75
2022/08/28 01:49:00;;;;;;;;;;;;;;;-144.99;94.54;52260.56;5010329;28;19925;-74
2022/08/28 01:51:26;;;;;;;;;;;;;;;-144.99;94.76;52248.34;5009020;28;19925;-75
2022/08/28 01:53:52;;;;;;;;;;;;;;;-144.99;95.00;52252.44;4998297;28;19925;-75
2022/08/28 01:56:19;;;;;;;;;;;;;;;-144.99;95.29;52252.44;5005563;28;19948;-76
2022/08/28 01:58:47;;;;;;;;;;;;;;;-144.99;95.34;52276.88;4999720;28;19926;-76
2022/08/28 02:01:16;;;;;;;;;;;;;;;-144.99;95.38;52297.25;5012776;28;19926;-76
2022/08/28 02:03:42;;;;;;;;;;;;;;;-144.99;95.43;52285.03;5010945;28;19926;-76
2022/08/28 02:06:09;;;;;;;;;;;;;;;-144.99;95.75;52240.19;5007326;28;20420;-75
2022/08/28 02:08:36;;;;;;;;;;;;;;;-144.99;95.96;52293.19;5005510;28;20079;-76
2022/08/28 02:11:03;;;;;;;;;;;;;;;-144.99;95.89;52264.66;5012263;28;19933;-74
2022/08/28 02:13:30;;;;;;;;;;;;;;;-144.99;96.17;52254.47;5015197;28;20357;-75
2022/08/28 02:15:58;;;;;;;;;;;;;;;-144.99;96.13;52248.34;5010304;28;19926;-75
2022/08/28 02:18:24;;;;;;;;;;;;;;;-144.99;96.26;52293.19;5002138;28;19925;-76
2022/08/28 02:20:51;;;;;;;;;;;;;;;-144.99;96.19;52236.13;5012359;28;20108;-76
2022/08/28 02:23:18;;;;;;;;;;;;;;;-144.99;96.39;52240.19;5011689;28;19932;-76
2022/08/28 02:25:44;;;;;;;;;;;;;;;-144.99;96.46;52268.72;5007995;28;20021;-75
2022/08/28 02:28:11;;;;;;;;;;;;;;;-144.99;96.57;52240.19;5007447;28;20399;-76
2022/08/28 02:30:37;;;;;;;;;;;;;;;-144.99;96.37;52260.56;5012216;28;20014;-76
2022/08/28 02:33:05;;;;;;;;;;;;;;;-144.99;96.64;52278.91;4999724;28;19925;-78
2022/08/28 02:35:32;;;;;;;;;;;;;;;-144.99;96.63;52219.81;5007680;28;20293;-76
2022/08/28 02:37:58;;;;;;;;;;;;;;;-144.99;96.82;52264.66;4999690;28;19930;-76
2022/08/28 02:40:25;;;;;;;;;;;;;;;-144.99;96.64;52248.34;5003964;28;19972;-75
2022/08/28 02:42:52;;;;;;;;;;;;;;;-144.99;96.54;52272.81;5011271;28;20427;-76
2022/08/28 02:45:19;;;;;;;;;;;;;;;-144.99;96.18;52244.28;5009130;28;19940;-75
2022/08/28 02:47:45;;;;;;;;;;;;;;;-144.99;95.90;52256.50;5001003;28;19926;-76
2022/08/28 02:50:14;;;;;;;;;;;;;;;-144.99;95.73;52311.53;5001654;28;19929;-75
2022/08/28 02:52:41;;;;;;;;;;;;;;;-144.99;95.51;52266.69;5010520;28;20427;-76
2022/08/28 02:55:09;;;;;;;;;;;;;;;-144.99;95.91;52260.56;5011667;28;19959;-76
2022/08/28 02:57:35;;;;;;;;;;;;;;;-144.99;96.03;52297.25;5002780;28;19925;-77
2022/08/28 03:00:02;;;;;;;;;;;;;;;-144.99;96.09;52268.72;5003851;28;20020;-77
2022/08/28 03:02:28;;;;;;;;;;;;;;;-144.99;96.53;52227.97;5011566;28;19952;-77
2022/08/28 03:04:55;;;;;;;;;;;;;;;-144.99;96.95;52280.97;5008674;28;20025;-76
2022/08/28 03:07:23;;;;;;;;;;;;;;;-144.99;96.83;52276.88;5006448;28;20522;-76
2022/08/28 03:09:49;;;;;;;;;;;;;;;-144.99;96.61;52248.34;5004205;28;19926;-76
2022/08/28 03:12:15;;;;;;;;;;;;;;;-144.99;96.71;52280.97;5010758;28;19926;-74
2022/08/28 03:14:42;;;;;;;;;;;;;;;-144.99;96.80;52252.44;5010889;28;19935;-75
2022/08/28 03:17:09;;;;;;;;;;;;;;;-144.99;96.54;52248.34;5008525;28;19937;-75
2022/08/28 03:19:35;;;;;;;;;;;;;;;-144.99;96.55;52295.22;4994882;28;19948;-74
2022/08/28 03:22:02;;;;;;;;;;;;;;;-144.99;96.61;52266.69;5007194;28;19929;-74
2022/08/28 03:24:28;;;;;;;;;;;;;;;-144.99;96.68;52268.72;5009227;28;20024;-74
2022/08/28 03:26:55;;;;;;;;;;;;;;;-144.99;96.40;52301.34;5000945;28;20044;-75
2022/08/28 03:29:21;;;;;;;;;;;;;;;-144.99;96.47;52219.81;5000631;28;20404;-75
2022/08/28 03:31:48;;;;;;;;;;;;;;;-144.99;96.45;52285.03;5002918;28;20029;-74
2022/08/28 03:34:14;;;;;;;;;;;;;;;-144.99;96.53;52313.56;5010182;28;19925;-74
2022/08/28 03:36:41;;;;;;;;;;;;;;;-144.99;96.40;52285.03;5009197;28;19925;-73
2022/08/28 03:39:07;;;;;;;;;;;;;;;-144.99;96.31;52291.16;5000988;28;19960;-74
2022/08/28 03:41:35;;;;;;;;;;;;;;;-144.99;96.21;52258.53;5004846;28;19940;-74
2022/08/28 03:44:01;;;;;;;;;;;;;;;-144.99;96.76;52301.34;5010223;28;20286;-73
2022/08/28 03:46:31;;;;;;;;;;;;;;;-144.99;96.57;52305.41;5009322;28;20012;-73
2022/08/28 03:48:58;;;;;;;;;;;;;;;-144.99;96.19;52252.44;5008728;28;19988;-77
2022/08/28 03:51:25;;;;;;;;;;;;;;;-144.99;95.79;52252.44;5005347;28;19957;-78
2022/08/28 03:53:52;;;;;;;;;;;;;;;-144.99;94.87;52252.44;5009965;28;19926;-77
2022/08/28 03:56:21;;;;;;;;;;;;;;;-144.99;95.28;52258.53;5011517;28;19979;-77
2022/08/28 03:58:50;;;;;;;;;;;;;;;-144.99;95.15;52268.72;5008596;28;19925;-76
2022/08/28 04:01:16;;;;;;;;;;;;;;;-144.99;95.38;52278.91;4999740;28;19980;-77
2022/08/28 04:03:43;;;;;;;;;;;;;;;-144.99;95.28;52278.91;5002423;28;19972;-77
2022/08/28 04:06:09;;;;;;;;;;;;;;;-144.99;94.99;52264.66;4996738;28;20245;-75
2022/08/28 04:08:36;;;;;;;;;;;;;;;-144.99;95.09;52276.88;5004840;28;20321;-76
2022/08/28 04:11:03;;;;;;;;;;;;;;;-144.99;95.04;52297.25;5004728;28;20036;-76
2022/08/28 04:13:30;;;;;;;;;;;;;;;-144.99;94.71;52285.03;5011072;28;19925;-75
2022/08/28 04:15:59;;;;;;;;;;;;;;;-144.99;94.71;52280.97;5009180;28;19987;-76
2022/08/28 04:18:25;;;;;;;;;;;;;;;-144.99;94.45;52276.88;5008918;28;19933;-75
2022/08/28 04:20:57;;;;;;;;;;;;;;;-144.99;94.54;52289.13;5002069;28;20028;-75
2022/08/28 04:23:24;;;;;;;;;;;;;;;-144.99;95.08;52293.19;5005566;28;20309;-76
2022/08/28 04:25:50;;;;;;;;;;;;;;;-144.99;94.27;52258.53;5004994;28;20036;-76
2022/08/28 04:28:17;;;;;;;;;;;;;;;-144.99;94.02;52276.88;5004815;28;19926;-76
2022/08/28 04:30:43;;;;;;;;;;;;;;;-144.99;94.20;52258.53;5004272;28;20024;-73
2022/08/28 04:33:11;;;;;;;;;;;;;;;-144.99;93.71;52293.19;4997026;28;19983;-73
2022/08/28 04:35:40;;;;;;;;;;;;;;;-144.99;93.71;52317.66;5004087;28;19929;-75
2022/08/28 04:38:06;;;;;;;;;;;;;;;-144.99;94.71;52313.56;5009292;28;19925;-74
2022/08/28 04:40:33;;;;;;;;;;;;;;;-144.99;94.92;52280.97;5005248;28;19925;-74
2022/08/28 04:42:59;;;;;;;;;;;;;;;-144.99;95.25;52305.41;4997852;28;19930;-75
2022/08/28 04:45:26;;;;;;;;;;;;;;;-144.99;95.69;52276.88;5009409;28;20025;-73
2022/08/28 04:47:52;;;;;;;;;;;;;;;-144.99;96.17;52297.25;5009323;28;19925;-73
2022/08/28 04:50:20;;;;;;;;;;;;;;;-144.99;96.71;52264.66;5005539;28;19929;-75
2022/08/28 04:52:46;;;;;;;;;;;;;;;-144.99;96.75;52285.03;5004720;28;20039;-72
2022/08/28 04:55:13;;;;;;;;;;;;;;;-144.99;96.29;52293.19;5006583;28;20411;-74
2022/08/28 04:57:39;;;;;;;;;;;;;;;-144.99;96.35;52276.88;5008456;28;19936;-75
2022/08/28 05:00:07;;;;;;;;;;;;;;;-144.99;96.30;52285.03;5005263;28;20568;-74
2022/08/28 05:02:34;;;;;;;;;;;;;;;-144.99;96.87;52285.03;4999637;28;19972;-74
2022/08/28 05:05:01;;;;;;;;;;;;;;;-144.99;97.55;52276.88;5004581;28;19936;-74
2022/08/28 05:07:29;;;;;;;;;;;;;;;-144.99;97.53;52264.66;5009367;28;20020;-74
2022/08/28 05:09:55;;;;;;;;;;;;;;;-144.99;97.57;52240.19;5008500;28;19932;-74
2022/08/28 05:12:22;;;;;;;;;;;;;;;-144.99;98.18;52270.78;4999619;28;19998;-75
2022/08/28 05:14:49;;;;;;;;;;;;;;;-144.99;97.77;52260.56;5004348;28;20325;-72
2022/08/28 05:17:16;;;;;;;;;;;;;;;-144.99;97.66;52254.47;5008784;28;19929;-75
2022/08/28 05:19:42;;;;;;;;;;;;;;;-144.99;97.44;52252.44;5008057;28;20588;-74
2022/08/28 05:22:09;;;;;;;;;;;;;;;-144.99;96.91;52280.97;5000796;28;19936;-73
2022/08/28 05:24:38;;;;;;;;;;;;;;;-144.99;96.56;52248.34;5002708;28;19925;-75
2022/08/28 05:27:04;;;;;;;;;;;;;;;-144.99;96.58;52236.13;5003101;28;19929;-76
2022/08/28 05:29:31;;;;;;;;;;;;;;;-144.99;96.35;52264.66;5011960;28;19932;-76
2022/08/28 05:31:57;;;;;;;;;;;;;;;-144.99;95.68;52264.66;5004823;28;20013;-75
2022/08/28 05:34:24;;;;;;;;;;;;;;;-144.99;95.16;52252.44;5005369;28;20012;-76
2022/08/28 05:36:50;;;;;;;;;;;;;;;-144.99;94.72;52289.13;5001833;28;20016;-76
2022/08/28 05:39:17;;;;;;;;;;;;;;;-144.99;94.25;52256.50;4996479;28;19926;-75
2022/08/28 05:41:45;;;;;;;;;;;;;;;-144.99;94.29;52244.28;5008152;28;20025;-76
2022/08/28 05:44:12;;;;;;;;;;;;;;;-144.99;93.66;52215.75;5004217;28;19926;-75
2022/08/28 05:46:40;;;;;;;;;;;;;;;-144.99;92.86;52252.44;5023381;28;19929;-75
2022/08/28 05:49:07;;;;;;;;;;;;;;;-144.99;91.67;52248.34;5017809;28;19936;-76
2022/08/28 05:51:34;;;;;;;;;;;;;;;-144.99;91.36;52280.97;5018803;28;20773;-75
2022/08/28 05:54:01;;;;;;;;;;;;;;;-144.99;90.75;52250.38;5016189;28;19930;-73
2022/08/28 05:56:29;;;;;;;;;;;;;;;-144.99;89.92;52223.88;5018858;28;20558;-74
2022/08/28 05:58:57;;;;;;;;;;;;;;;-144.99;88.79;52232.03;5012266;28;19925;-75
2022/08/28 06:01:26;;;;;;;;;;;;;;;-144.99;88.28;52223.88;5011795;28;19925;-74
2022/08/28 06:03:55;;;;;;;;;;;;;;;-144.99;86.98;52223.88;4994652;28;19926;-73
2022/08/28 06:06:23;;;;;;;;;;;;;;;-144.99;85.53;52193.31;5008153;28;19980;-74
2022/08/28 06:08:50;;;;;;;;;;;;;;;-144.99;84.50;52193.31;5004841;28;19975;-74
2022/08/28 06:11:19;;;;;;;;;;;;;;;-144.99;83.47;52195.34;5013920;28;20030;-75
2022/08/28 06:13:45;;;;;;;;;;;;;;;-144.99;82.96;52191.28;5009282;28;19926;-75
2022/08/28 06:16:13;;;;;;;;;;;;;;;-144.99;82.15;52199.44;5013422;28;20456;-75
2022/08/28 06:18:40;;;;;;;;;;;;;;;-144.99;81.05;52195.34;5018056;28;19929;-76
2022/08/28 06:21:07;;;;;;;;;;;;;;;-144.99;80.34;52209.63;5016816;28;19932;-74
2022/08/28 06:23:33;;;;;;;;;;;;;;;-144.99;78.91;52183.13;5012040;28;19931;-74
2022/08/28 06:26:00;;;;;;;;;;;;;;;-144.99;78.08;52203.50;5014923;28;19929;-75
2022/08/28 06:28:27;;;;;;;;;;;;;;;-144.99;77.35;52195.34;5013612;28;19935;-75
2022/08/28 06:30:54;;;;;;;;;;;;;;;-144.99;77.01;52219.81;5012930;28;20361;-73
2022/08/28 06:33:23;;;;;;;;;;;;;;;-144.99;76.63;52179.06;5001163;28;20582;-75
2022/08/28 06:35:51;;;;;;;;;;;;;;;-144.99;75.01;52195.34;5002105;28;19926;-74
2022/08/28 06:38:21;;;;;;;;;;;;;;;-144.99;73.09;52221.84;5005788;28;19931;-74
2022/08/28 06:40:48;;;;;;;;;;;;;;;-144.99;72.32;52179.06;5010240;28;20020;-73
2022/08/28 06:43:16;;;;;;;;;;;;;;;-144.99;71.40;52162.75;5013605;28;20389;-76
2022/08/28 06:45:43;;;;;;;;;;;;;;;-144.99;70.72;52195.34;5004244;28;19949;-75
2022/08/28 06:48:10;;;;;;;;;;;;;;;-144.99;70.37;52183.13;5012650;28;20074;-76
2022/08/28 06:50:42;;;;;;;;;;;;;;;-144.99;69.88;52138.28;5011860;28;19933;-76
2022/08/28 06:53:09;;;;;;;;;;;;;;;-144.99;67.90;52150.53;5016182;28;19932;-76
2022/08/28 06:55:35;;;;;;;;;;;;;;;-144.99;66.87;52166.81;5007858;28;19933;-76
2022/08/28 06:58:01;;;;;;;;;;;;;;;-144.99;66.21;52152.56;5010549;28;19925;-75
2022/08/28 07:00:28;;;;;;;;;;;;;;;-144.99;65.13;52158.66;5004016;28;19932;-74
2022/08/28 07:02:55;;;;;;;;;;;;;;;-144.99;64.98;52170.91;5011056;28;19925;-76
2022/08/28 07:05:21;;;;;;;;;;;;;;;-144.99;64.02;52146.44;5006891;28;19933;-75
2022/08/28 07:07:49;;;;;;;;;;;;;;;-144.99;62.62;52154.59;5010496;28;20013;-77
2022/08/28 07:10:15;;;;;;;;;;;;;;;-144.99;61.38;52162.75;5011389;28;20305;-75
2022/08/28 07:12:41;;;;;;;;;;;;;;;-144.99;61.01;52170.91;5010987;28;19925;-75
2022/08/28 07:15:09;;;;;;;;;;;;;;;-144.99;60.43;52179.06;5002187;28;20016;-72
2022/08/28 07:17:35;;;;;;;;;;;;;;;-144.99;60.43;52179.06;5004001;28;19932;-72
2022/08/28 07:20:02;;;;;;;;;;;;;;;-144.99;58.59;52156.63;5005194;28;19933;-73
2022/08/28 07:22:28;;;;;;;;;;;;;;;-144.99;58.45;52195.34;5011528;28;19929;-71
2022/08/28 07:24:57;;;;;;;;;;;;;;;-144.99;58.33;52170.91;5010023;28;20392;-70
2022/08/28 07:27:24;;;;;;;;;;;;;;;-144.99;57.50;52158.66;5002225;28;19931;-73
2022/08/28 07:29:51;;;;;;;;;;;;;;;-144.99;56.61;52183.13;5010744;28;19977;-73
2022/08/28 07:32:18;;;;;;;;;;;;;;;-144.99;54.93;52136.25;4999137;28;20024;-72
2022/08/28 07:34:44;;;;;;;;;;;;;;;-144.99;53.62;52146.44;5010659;28;20286;-72
2022/08/28 07:37:10;;;;;;;;;;;;;;;-144.99;53.39;52162.75;5003752;28;20409;-72
2022/08/28 07:39:37;;;;;;;;;;;;;;;-144.99;52.84;52174.97;5000087;28;19932;-71
2022/08/28 07:42:05;;;;;;;;;;;;;;;-144.99;51.96;52128.09;5010858;28;19926;-78
2022/08/28 07:44:48;;;;;;;;;;;;;;;-144.99;51.75;52168.84;5010418;28;20404;-72
2022/08/28 07:47:15;;;;;;;;;;;;;;;-144.99;51.21;52154.59;5000171;28;19981;-73
2022/08/28 07:49:41;;;;;;;;;;;;;;;-144.99;50.98;52146.44;5005355;28;19976;-72
2022/08/28 07:52:08;;;;;;;;;;;;;;;-144.99;50.76;52126.06;5007477;28;20324;-72
2022/08/28 07:54:35;;;;;;;;;;;;;;;-144.99;51.07;52105.69;5010127;28;20019;-71
2022/08/28 07:57:02;;;;;;;;;;;;;;;-144.99;49.48;52113.84;5003479;28;20435;-74
2022/08/28 07:59:30;;;;;;;;;;;;;;;-144.99;49.05;52126.06;4998583;28;19926;-70
2022/08/28 08:01:57;;;;;;;;;;;;;;;-144.99;48.77;52146.44;4996733;28;20500;-74
2022/08/28 08:04:24;;;;;;;;;;;;;;;-144.99;48.88;52101.59;5006534;28;19925;-73
2022/08/28 08:06:52;;;;;;;;;;;;;;;-144.99;48.91;52121.97;4999987;28;19932;-72
2022/08/28 08:09:19;;;;;;;;;;;;;;;-144.99;48.53;52130.13;5002016;28;19944;-72
2022/08/28 08:11:46;;;;;;;;;;;;;;;-144.99;48.71;52130.13;5008139;28;19926;-72
2022/08/28 08:14:13;;;;;;;;;;;;;;;-144.99;48.49;52121.97;5008331;28;19985;-73
2022/08/28 08:16:42;;;;;;;;;;;;;;;-144.99;48.33;52085.31;5002654;28;19930;-72
2022/08/28 08:19:12;;;;;;;;;;;;;;;-144.99;47.79;52117.91;5002793;28;19940;-70
2022/08/28 08:21:39;;;;;;;;;;;;;;;-144.99;46.98;52146.44;4999989;28;20016;-72
2022/08/28 08:24:05;;;;;;;;;;;;;;;-144.99;47.21;52075.09;5008209;28;19933;-72
2022/08/28 08:26:32;;;;;;;;;;;;;;;-144.99;46.93;52069.00;5000415;28;20012;-73
2022/08/28 08:28:59;;;;;;;;;;;;;;;-144.99;46.66;52126.06;4997718;28;19929;-72
2022/08/28 08:31:27;;;;;;;;;;;;;;;-144.99;46.06;52109.75;5007018;28;19929;-73
2022/08/28 08:33:56;;;;;;;;;;;;;;;-144.99;46.19;52128.09;5005681;28;19930;-73
2022/08/28 08:36:24;;;;;;;;;;;;;;;-144.99;46.26;52109.75;5007545;28;20409;-72
2022/08/28 08:38:50;;;;;;;;;;;;;;;-144.99;46.31;52081.22;5001035;28;19932;-74
2022/08/28 08:41:19;;;;;;;;;;;;;;;-144.99;45.78;52073.06;5003834;28;19932;-73
2022/08/28 08:43:51;;;;;;;;;;;;;;;-144.99;45.24;52121.97;5007493;28;19929;-74
2022/08/28 08:46:18;;;;;;;;;;;;;;;-144.99;45.28;52121.97;5007740;28;19929;-72
2022/08/28 08:48:46;;;;;;;;;;;;;;;-144.99;45.28;52130.13;4998676;28;20399;-72
2022/08/28 08:51:20;;;;;;;;;;;;;;;-144.99;45.46;52152.56;4996872;28;20020;-73
2022/08/28 08:53:50;;;;;;;;;;;;;;;-144.99;45.54;52105.69;4314273;28;10000720;-73
2022/08/28 08:56:20;;;;;;;;;;;;;;;-144.99;45.39;52056.78;5004062;28;19925;-74
2022/08/28 08:58:48;;;;;;;;;;;;;;;-144.99;45.32;52105.69;4996231;28;19969;-73
2022/08/28 09:01:17;;;;;;;;;;;;;;;-144.99;44.67;52077.16;4999967;28;19931;-72
2022/08/28 09:03:48;;;;;;;;;;;;;;;-144.99;43.93;52091.41;4998666;28;19929;-72
2022/08/28 09:06:19;;;;;;;;;;;;;;;-144.99;42.82;52073.06;4997951;28;19929;-74
2022/08/28 09:08:48;;;;;;;;;;;;;;;-144.99;42.91;52052.69;5001092;28;19932;-71
2022/08/28 09:11:20;;;;;;;;;;;;;;;-144.99;42.21;52077.16;5006530;28;19961;-74
2022/08/28 09:13:52;;;;;;;;;;;;;;;-144.99;43.06;52085.31;5004909;28;19925;-74
2022/08/28 09:16:22;;;;;;;;;;;;;;;-144.99;42.81;52085.31;4997117;28;19929;-74
2022/08/28 09:18:49;;;;;;;;;;;;;;;-144.99;43.31;52085.31;5002411;28;20466;-72
2022/08/28 09:21:25;;;;;;;;;;;;;;;-144.99;43.82;52091.41;5006380;28;19940;-74
2022/08/28 09:23:53;;;;;;;;;;;;;;;-144.99;44.24;52138.28;5006147;28;20239;-73
2022/08/28 09:26:22;;;;;;;;;;;;;;;-144.99;44.30;52107.72;4997782;28;20004;-74
2022/08/28 09:28:58;;;;;;;;;;;;;;;-144.99;44.84;52119.94;4999258;28;20041;-74
2022/08/28 09:31:30;;;;;;;;;;;;;;;-144.99;45.24;52109.75;4998995;28;19930;-72
2022/08/28 09:34:16;;;;;;;;;;;;;;;-144.99;46.12;52142.38;5001483;28;20041;-78
2022/08/28 09:36:44;;;;;;;;;;;;;;;-144.99;46.73;52160.72;5001485;28;19929;-79
2022/08/28 09:39:12;;;;;;;;;;;;;;;-144.99;46.68;52156.63;5011985;28;19969;-80
2022/08/28 09:44:26;;;;;;;;;;;;;;;-144.99;45.85;52160.72;5007595;28;19984;-79
2022/08/28 09:46:52;;;;;;;;;;;;;;;-144.99;46.19;52166.81;5007047;28;19936;-81
2022/08/28 09:49:23;;;;;;;;;;;;;;;-144.99;47.06;52162.75;5011904;28;20401;-78
2022/08/28 09:51:52;;;;;;;;;;;;;;;-144.99;46.51;52166.81;5015537;28;19929;-79
2022/08/28 09:54:21;;;;;;;;;;;;;;;-144.99;47.23;52183.13;5014410;28;19932;-78
2022/08/28 09:56:49;;;;;;;;;;;;;;;-144.99;46.94;52168.84;5011760;28;19933;-79
2022/08/28 09:59:16;;;;;;;;;;;;;;;-144.99;46.59;52156.63;5013220;28;19957;-79
2022/08/28 10:01:48;;;;;;;;;;;;;;;-144.99;46.76;52168.84;5016370;28;20399;-80
2022/08/28 10:04:21;;;;;;;;;;;;;;;-144.99;47.43;52174.97;5016654;28;19930;-79
2022/08/28 10:06:51;;;;;;;;;;;;;;;-144.99;47.71;52207.59;5012234;28;20012;-78
2022/08/28 10:09:23;;;;;;;;;;;;;;;-144.99;48.63;52179.06;5011098;28;20393;-77
2022/08/28 10:11:52;;;;;;;;;;;;;;;-144.99;49.59;52174.97;4664549;28;9999974;-78
2022/08/28 10:14:26;;;;;;;;;;;;;;;-144.99;50.20;52187.19;5012090;28;19979;-79
2022/08/28 10:16:58;;;;;;;;;;;;;;;-144.99;50.24;52179.06;5017476;28;19940;-79
2022/08/28 10:19:33;;;;;;;;;;;;;;;-144.99;50.63;52191.28;5018061;28;20353;-79
2022/08/28 10:22:04;;;;;;;;;;;;;;;-144.99;50.52;52170.91;5012971;28;20052;-78
2022/08/28 10:24:41;;;;;;;;;;;;;;;-144.99;51.44;52199.44;5014400;28;20027;-80
2022/08/28 10:27:11;;;;;;;;;;;;;;;-144.99;51.53;52187.19;5014931;28;20467;-78
2022/08/28 10:29:47;;;;;;;;;;;;;;;-144.99;52.06;52185.16;5019296;28;19964;-78
2022/08/28 10:32:23;;;;;;;;;;;;;;;-144.99;52.21;52146.44;5016629;28;19933;-79
2022/08/28 10:34:57;;;;;;;;;;;;;;;-144.99;52.05;52166.81;5015040;28;19972;-77
2022/08/28 10:37:29;;;;;;;;;;;;;;;-144.99;51.90;52183.13;5008984;28;20479;-75
2022/08/28 10:39:58;;;;;;;;;;;;;;;-144.99;51.51;52136.25;5003194;28;20008;-78
2022/08/28 10:42:29;;;;;;;;;;;;;;;-144.99;49.72;52146.44;5012029;28;19929;-79
2022/08/28 10:45:03;;;;;;;;;;;;;;;-144.99;48.37;52156.63;5013238;28;20012;-79
2022/08/28 10:47:31;;;;;;;;;;;;;;;-144.99;47.92;52158.66;5013703;28;19952;-79
2022/08/28 10:50:01;;;;;;;;;;;;;;;-144.99;47.32;52160.72;5012439;28;20024;-78
2022/08/28 10:52:30;;;;;;;;;;;;;;;-144.99;47.11;52085.31;5008141;28;19945;-78
2022/08/28 10:55:01;;;;;;;;;;;;;;;-144.99;45.81;52064.91;5020964;28;20593;-79
2022/08/28 10:57:30;;;;;;;;;;;;;;;-144.99;44.42;52081.22;5008760;28;19930;-79
2022/08/28 10:59:57;;;;;;;;;;;;;;;-144.99;42.82;52032.31;5013211;28;19933;-76
2022/08/28 11:02:25;;;;;;;;;;;;;;;-144.99;41.12;52085.31;5014669;28;20059;-79
2022/08/28 11:04:52;;;;;;;;;;;;;;;-144.99;41.16;52064.91;5013840;28;19929;-77
2022/08/28 11:07:22;;;;;;;;;;;;;;;-144.99;41.20;52113.84;5014532;28;19988;-77
2022/08/28 11:09:49;;;;;;;;;;;;;;;-144.99;41.73;52097.53;5012838;28;19933;-78
2022/08/28 11:12:35;;;;;;;;;;;;;;;-144.99;41.60;52126.06;5003238;28;19929;-78
2022/08/28 11:15:35;;;;;;;;;;;;;;;-144.99;42.35;52138.28;5006402;28;19930;-78
2022/08/28 11:18:18;;;;;;;;;;;;;;;-144.99;42.95;52146.44;5006381;28;20699;-77
2022/08/28 11:20:54;;;;;;;;;;;;;;;-144.99;44.23;52117.91;5001799;28;20597;-77
2022/08/28 11:23:23;;;;;;;;;;;;;;;-144.99;45.09;52162.75;5005063;28;20552;-77
2022/08/28 11:25:50;;;;;;;;;;;;;;;-144.99;45.04;52138.28;5012926;28;19924;-76
2022/08/28 11:28:21;;;;;;;;;;;;;;;-144.99;44.33;51958.94;5016862;28;19932;-78
2022/08/28 11:30:49;;;;;;;;;;;;;;;-144.99;43.31;51958.94;5007624;28;19929;-77
2022/08/28 11:33:35;;;;;;;;;;;;;;;-144.99;41.67;51975.25;5004770;28;19976;-79
2022/08/28 11:36:03;;;;;;;;;;;;;;;-144.99;40.96;51885.56;5009332;28;19929;-77
2022/08/28 11:38:48;;;;;;;;;;;;;;;-144.99;39.81;51991.56;5006715;28;19973;-79
2022/08/28 11:41:16;;;;;;;;;;;;;;;-144.99;38.53;51971.16;5007193;28;19937;-78
2022/08/28 11:43:45;;;;;;;;;;;;;;;-144.99;38.15;52020.09;5012116;28;19984;-79
2022/08/28 11:46:26;;;;;;;;;;;;;;;-144.99;38.02;52048.63;5007747;28;20031;-78
2022/08/28 11:48:53;;;;;;;;;;;;;;;-144.99;38.09;52077.16;5012325;28;19930;-78
2022/08/28 11:51:32;;;;;;;;;;;;;;;-144.99;38.09;52048.63;5005372;28;20521;-77
2022/08/28 11:54:03;;;;;;;;;;;;;;;-144.99;38.38;52062.88;5007711;28;19925;-77
2022/08/28 11:56:35;;;;;;;;;;;;;;;-144.99;39.13;51924.28;5000845;28;20017;-78
2022/08/28 11:59:24;;;;;;;;;;;;;;;-144.99;37.93;51918.19;5000269;28;19929;-77
2022/08/28 12:01:51;;;;;;;;;;;;;;;-144.99;38.83;52069.00;5002222;28;19937;-78
2022/08/28 12:04:18;;;;;;;;;;;;;;;-144.99;38.59;52101.59;5008726;28;19944;-78
2022/08/28 12:06:46;;;;;;;;;;;;;;;-144.99;39.05;52089.38;5013013;28;19930;-79
2022/08/28 12:09:32;;;;;;;;;;;;;;;-144.99;39.96;52093.44;5016441;28;19931;-78
2022/08/28 12:12:01;;;;;;;;;;;;;;;-144.99;41.51;52101.59;5013190;28;20016;-80
2022/08/28 12:14:49;;;;;;;;;;;;;;;-144.99;42.37;52162.75;5005825;28;20015;-78
2022/08/28 12:17:23;;;;;;;;;;;;;;;-144.99;43.21;52146.44;5007662;28;19999;-78
2022/08/28 12:19:52;;;;;;;;;;;;;;;-144.99;43.88;52117.91;5009963;28;19925;-76
2022/08/28 12:22:20;;;;;;;;;;;;;;;-144.99;44.79;52136.25;5011866;28;19933;-79
2022/08/28 12:24:47;;;;;;;;;;;;;;;-144.99;45.67;52217.78;5010550;28;19956;-79
2022/08/28 12:27:14;;;;;;;;;;;;;;;-144.99;46.28;52179.06;5013267;28;19995;-78
2022/08/28 12:29:45;;;;;;;;;;;;;;;-144.99;46.66;52199.44;5016292;28;19925;-78
2022/08/28 12:32:23;;;;;;;;;;;;;;;-144.99;47.01;52185.16;5015694;28;20385;-76
2022/08/28 12:34:54;;;;;;;;;;;;;;;-144.99;47.53;52073.06;5018649;28;20325;-78